sensor_id;sensor_type;location;lat;lon;timestamp;pressure;altitude;pressure_sealevel;temperature;humidity
46412;BME280;32113;42.012;24.870;2023-09-30T00:01:50;99258.53;;;19.46;50.71
46412;BME280;32113;42.012;24.870;2023-09-30T00:04:17;99259.84;;;19.35;50.90
46412;BME280;32113;42.012;24.870;2023-09-30T00:06:43;99263.03;;;19.42;50.92
46412;BME280;32113;42.012;24.870;2023-09-30T00:09:08;99263.84;;;19.42;50.75
46412;BME280;32113;42.012;24.870;2023-09-30T00:11:34;99255.97;;;19.44;50.79
46412;BME280;32113;42.012;24.870;2023-09-30T00:14:00;99261.19;;;19.44;50.70
46412;BME280;32113;42.012;24.870;2023-09-30T00:16:25;99262.56;;;19.53;50.31
46412;BME280;32113;42.012;24.870;2023-09-30T00:18:50;99260.44;;;19.61;49.85
46412;BME280;32113;42.012;24.870;2023-09-30T00:21:16;99254.06;;;19.48;50.37
46412;BME280;32113;42.012;24.870;2023-09-30T00:23:41;99256.31;;;19.36;50.76
46412;BME280;32113;42.012;24.870;2023-09-30T00:26:07;99259.97;;;19.32;50.78
46412;BME280;32113;42.012;24.870;2023-09-30T00:28:32;99251.41;;;19.30;50.86
46412;BME280;32113;42.012;24.870;2023-09-30T00:30:58;99255.41;;;19.37;50.76
46412;BME280;32113;42.012;24.870;2023-09-30T00:33:23;99247.22;;;19.26;50.89
46412;BME280;32113;42.012;24.870;2023-09-30T00:35:48;99240.34;;;19.25;50.92
46412;BME280;32113;42.012;24.870;2023-09-30T00:38:14;99247.28;;;19.24;50.89
46412;BME280;32113;42.012;24.870;2023-09-30T00:40:49;99244.97;;;19.18;51.08
46412;BME280;32113;42.012;24.870;2023-09-30T00:43:19;99256.25;;;19.17;51.00
46412;BME280;32113;42.012;24.870;2023-09-30T00:45:45;99247.09;;;19.08;51.24
46412;BME280;32113;42.012;24.870;2023-09-30T00:48:10;99252.41;;;19.05;51.58
46412;BME280;32113;42.012;24.870;2023-09-30T00:50:36;99254.13;;;19.06;51.82
46412;BME280;32113;42.012;24.870;2023-09-30T00:53:01;99247.09;;;19.08;51.55
46412;BME280;32113;42.012;24.870;2023-09-30T00:55:27;99255.03;;;19.05;51.72
46412;BME280;32113;42.012;24.870;2023-09-30T00:57:52;99254.34;;;19.00;51.60
46412;BME280;32113;42.012;24.870;2023-09-30T01:00:18;99253.03;;;18.89;52.06
46412;BME280;32113;42.012;24.870;2023-09-30T01:02:44;99268.38;;;18.96;51.71
46412;BME280;32113;42.012;24.870;2023-09-30T01:05:10;99258.84;;;18.96;52.11
46412;BME280;32113;42.012;24.870;2023-09-30T01:07:35;99258.13;;;18.93;51.91
46412;BME280;32113;42.012;24.870;2023-09-30T01:10:01;99260.56;;;18.75;52.36
46412;BME280;32113;42.012;24.870;2023-09-30T01:12:27;99256.56;;;18.88;52.07
46412;BME280;32113;42.012;24.870;2023-09-30T01:14:57;99256.56;;;18.88;52.03
46412;BME280;32113;42.012;24.870;2023-09-30T01:17:23;99257.03;;;18.98;51.67
46412;BME280;32113;42.012;24.870;2023-09-30T01:19:49;99257.41;;;18.89;52.21
46412;BME280;32113;42.012;24.870;2023-09-30T01:22:15;99249.09;;;18.81;52.31
46412;BME280;32113;42.012;24.870;2023-09-30T01:24:42;99253.53;;;18.77;52.57
46412;BME280;32113;42.012;24.870;2023-09-30T01:27:10;99257.72;;;18.81;52.52
46412;BME280;32113;42.012;24.870;2023-09-30T01:29:36;99265.06;;;18.71;52.80
46412;BME280;32113;42.012;24.870;2023-09-30T01:32:04;99265.59;;;18.57;53.29
46412;BME280;32113;42.012;24.870;2023-09-30T01:34:32;99264.28;;;18.47;53.70
46412;BME280;32113;42.012;24.870;2023-09-30T01:36:58;99267.16;;;18.61;53.51
46412;BME280;32113;42.012;24.870;2023-09-30T01:39:23;99261.25;;;18.58;53.57
46412;BME280;32113;42.012;24.870;2023-09-30T01:41:48;99257.19;;;18.50;53.89
46412;BME280;32113;42.012;24.870;2023-09-30T01:44:14;99253.47;;;18.35;54.64
46412;BME280;32113;42.012;24.870;2023-09-30T01:46:39;99257.88;;;18.33;54.60
46412;BME280;32113;42.012;24.870;2023-09-30T01:49:05;99255.56;;;18.48;53.99
46412;BME280;32113;42.012;24.870;2023-09-30T01:51:30;99251.66;;;18.37;54.04
46412;BME280;32113;42.012;24.870;2023-09-30T01:53:56;99248.41;;;18.32;54.17
46412;BME280;32113;42.012;24.870;2023-09-30T01:56:21;99254.31;;;18.36;54.40
46412;BME280;32113;42.012;24.870;2023-09-30T01:58:47;99257.47;;;18.22;54.85
46412;BME280;32113;42.012;24.870;2023-09-30T02:01:12;99255.47;;;18.29;54.81
46412;BME280;32113;42.012;24.870;2023-09-30T02:03:37;99250.38;;;18.25;54.22
46412;BME280;32113;42.012;24.870;2023-09-30T02:06:03;99245.50;;;18.18;55.20
46412;BME280;32113;42.012;24.870;2023-09-30T02:08:29;99248.56;;;18.04;55.40
46412;BME280;32113;42.012;24.870;2023-09-30T02:10:54;99255.94;;;18.16;55.15
46412;BME280;32113;42.012;24.870;2023-09-30T02:13:19;99258.84;;;18.08;55.67
46412;BME280;32113;42.012;24.870;2023-09-30T02:15:45;99257.91;;;18.09;55.51
46412;BME280;32113;42.012;24.870;2023-09-30T02:18:10;99256.66;;;17.96;55.69
46412;BME280;32113;42.012;24.870;2023-09-30T02:20:36;99256.84;;;17.91;55.85
46412;BME280;32113;42.012;24.870;2023-09-30T02:23:11;99252.72;;;17.85;56.23
46412;BME280;32113;42.012;24.870;2023-09-30T02:25:37;99246.66;;;17.85;56.44
46412;BME280;32113;42.012;24.870;2023-09-30T02:28:03;99244.94;;;17.85;56.35
46412;BME280;32113;42.012;24.870;2023-09-30T02:30:29;99260.56;;;17.84;56.58
46412;BME280;32113;42.012;24.870;2023-09-30T02:32:56;99246.81;;;17.82;56.54
46412;BME280;32113;42.012;24.870;2023-09-30T02:35:21;99261.81;;;17.97;56.20
46412;BME280;32113;42.012;24.870;2023-09-30T02:37:47;99250.03;;;17.89;56.52
46412;BME280;32113;42.012;24.870;2023-09-30T02:40:12;99257.06;;;17.85;56.38
46412;BME280;32113;42.012;24.870;2023-09-30T02:42:40;99246.44;;;17.69;57.13
46412;BME280;32113;42.012;24.870;2023-09-30T02:45:07;99243.94;;;17.66;57.50
46412;BME280;32113;42.012;24.870;2023-09-30T02:47:37;99248.41;;;17.62;57.76
46412;BME280;32113;42.012;24.870;2023-09-30T02:50:04;99248.09;;;17.70;56.89
46412;BME280;32113;42.012;24.870;2023-09-30T02:52:30;99253.63;;;17.60;57.33
46412;BME280;32113;42.012;24.870;2023-09-30T02:54:57;99251.31;;;17.53;57.77
46412;BME280;32113;42.012;24.870;2023-09-30T02:57:23;99253.44;;;17.41;58.24
46412;BME280;32113;42.012;24.870;2023-09-30T02:59:49;99238.78;;;17.40;58.30
46412;BME280;32113;42.012;24.870;2023-09-30T03:02:15;99250.00;;;17.41;58.16
46412;BME280;32113;42.012;24.870;2023-09-30T03:04:41;99240.47;;;17.41;58.20
46412;BME280;32113;42.012;24.870;2023-09-30T03:07:07;99251.13;;;17.33;58.43
46412;BME280;32113;42.012;24.870;2023-09-30T03:09:34;99239.09;;;17.31;58.29
46412;BME280;32113;42.012;24.870;2023-09-30T03:11:59;99235.78;;;17.27;58.53
46412;BME280;32113;42.012;24.870;2023-09-30T03:14:25;99231.16;;;17.36;58.20
46412;BME280;32113;42.012;24.870;2023-09-30T03:16:50;99241.44;;;17.39;58.14
46412;BME280;32113;42.012;24.870;2023-09-30T03:19:16;99245.97;;;17.32;58.53
46412;BME280;32113;42.012;24.870;2023-09-30T03:21:42;99245.34;;;17.25;58.72
46412;BME280;32113;42.012;24.870;2023-09-30T03:24:08;99251.81;;;17.13;59.14
46412;BME280;32113;42.012;24.870;2023-09-30T03:26:34;99247.53;;;17.12;59.62
46412;BME280;32113;42.012;24.870;2023-09-30T03:29:00;99242.34;;;17.12;59.41
46412;BME280;32113;42.012;24.870;2023-09-30T03:31:25;99251.81;;;17.13;59.52
46412;BME280;32113;42.012;24.870;2023-09-30T03:33:51;99245.94;;;17.08;59.67
46412;BME280;32113;42.012;24.870;2023-09-30T03:36:22;99252.22;;;17.01;59.68
46412;BME280;32113;42.012;24.870;2023-09-30T03:38:52;99248.84;;;16.97;60.03
46412;BME280;32113;42.012;24.870;2023-09-30T03:41:24;99252.56;;;16.90;60.30
46412;BME280;32113;42.012;24.870;2023-09-30T03:43:50;99260.22;;;16.93;60.04
46412;BME280;32113;42.012;24.870;2023-09-30T03:46:16;99255.16;;;16.90;60.12
46412;BME280;32113;42.012;24.870;2023-09-30T03:48:42;99245.78;;;16.86;60.20
46412;BME280;32113;42.012;24.870;2023-09-30T03:51:12;99249.31;;;16.83;60.25
46412;BME280;32113;42.012;24.870;2023-09-30T03:53:41;99255.50;;;16.79;60.70
46412;BME280;32113;42.012;24.870;2023-09-30T03:56:06;99245.47;;;16.68;61.17
46412;BME280;32113;42.012;24.870;2023-09-30T03:58:32;99246.28;;;16.70;60.72
46412;BME280;32113;42.012;24.870;2023-09-30T04:00:58;99246.00;;;16.79;60.71
46412;BME280;32113;42.012;24.870;2023-09-30T04:03:25;99252.00;;;16.80;60.55
46412;BME280;32113;42.012;24.870;2023-09-30T04:05:52;99256.34;;;16.79;60.71
46412;BME280;32113;42.012;24.870;2023-09-30T04:08:18;99251.31;;;16.75;60.58
46412;BME280;32113;42.012;24.870;2023-09-30T04:10:43;99251.63;;;16.65;60.68
46412;BME280;32113;42.012;24.870;2023-09-30T04:13:09;99260.63;;;16.53;61.10
46412;BME280;32113;42.012;24.870;2023-09-30T04:15:36;99246.03;;;16.51;61.35
46412;BME280;32113;42.012;24.870;2023-09-30T04:18:03;99249.47;;;16.51;61.66
46412;BME280;32113;42.012;24.870;2023-09-30T04:20:30;99259.97;;;16.47;61.65
46412;BME280;32113;42.012;24.870;2023-09-30T04:22:56;99248.56;;;16.52;61.48
46412;BME280;32113;42.012;24.870;2023-09-30T04:25:23;99254.78;;;16.47;62.12
46412;BME280;32113;42.012;24.870;2023-09-30T04:27:50;99251.28;;;16.48;62.22
46412;BME280;32113;42.012;24.870;2023-09-30T04:30:16;99264.81;;;16.58;61.92
46412;BME280;32113;42.012;24.870;2023-09-30T04:32:42;99257.19;;;16.53;61.93
46412;BME280;32113;42.012;24.870;2023-09-30T04:35:08;99259.03;;;16.49;62.09
46412;BME280;32113;42.012;24.870;2023-09-30T04:37:34;99261.16;;;16.36;62.40
46412;BME280;32113;42.012;24.870;2023-09-30T04:40:03;99264.66;;;16.35;62.74
46412;BME280;32113;42.012;24.870;2023-09-30T04:42:34;99264.44;;;16.41;62.51
46412;BME280;32113;42.012;24.870;2023-09-30T04:45:04;99272.88;;;16.48;61.87
46412;BME280;32113;42.012;24.870;2023-09-30T04:47:32;99259.31;;;16.40;62.40
46412;BME280;32113;42.012;24.870;2023-09-30T04:49:58;99270.56;;;16.39;61.90
46412;BME280;32113;42.012;24.870;2023-09-30T04:52:23;99274.06;;;16.38;62.02
46412;BME280;32113;42.012;24.870;2023-09-30T04:54:52;99270.56;;;16.39;62.40
46412;BME280;32113;42.012;24.870;2023-09-30T04:57:17;99278.47;;;16.34;62.61
46412;BME280;32113;42.012;24.870;2023-09-30T04:59:44;99266.28;;;16.38;62.50
46412;BME280;32113;42.012;24.870;2023-09-30T05:02:09;99273.25;;;16.36;62.10
46412;BME280;32113;42.012;24.870;2023-09-30T05:04:36;99277.72;;;16.31;62.27
46412;BME280;32113;42.012;24.870;2023-09-30T05:07:02;99278.19;;;16.44;62.14
46412;BME280;32113;42.012;24.870;2023-09-30T05:09:28;99285.63;;;16.54;62.44
46412;BME280;32113;42.012;24.870;2023-09-30T05:11:54;99274.59;;;16.48;61.69
46412;BME280;32113;42.012;24.870;2023-09-30T05:14:20;99279.41;;;16.60;62.92
46412;BME280;32113;42.012;24.870;2023-09-30T05:16:46;99277.47;;;16.67;60.94
46412;BME280;32113;42.012;24.870;2023-09-30T05:19:12;99283.84;;;16.57;61.43
46412;BME280;32113;42.012;24.870;2023-09-30T05:21:38;99284.53;;;16.62;61.46
46412;BME280;32113;42.012;24.870;2023-09-30T05:24:04;99279.41;;;16.60;61.29
46412;BME280;32113;42.012;24.870;2023-09-30T05:26:31;99274.19;;;16.62;61.43
46412;BME280;32113;42.012;24.870;2023-09-30T05:28:56;99276.72;;;16.63;61.27
46412;BME280;32113;42.012;24.870;2023-09-30T05:31:21;99291.22;;;16.69;61.07
46412;BME280;32113;42.012;24.870;2023-09-30T05:33:47;99287.84;;;16.67;61.29
46412;BME280;32113;42.012;24.870;2023-09-30T05:36:12;99283.44;;;16.69;61.19
46412;BME280;32113;42.012;24.870;2023-09-30T05:38:39;99301.53;;;16.71;60.90
46412;BME280;32113;42.012;24.870;2023-09-30T05:41:04;99306.78;;;16.96;60.12
46412;BME280;32113;42.012;24.870;2023-09-30T05:43:31;99313.63;;;16.97;59.85
46412;BME280;32113;42.012;24.870;2023-09-30T05:45:57;99302.50;;;16.95;59.70
46412;BME280;32113;42.012;24.870;2023-09-30T05:48:24;99296.31;;;16.99;59.59
46412;BME280;32113;42.012;24.870;2023-09-30T05:50:49;99287.63;;;17.00;59.39
46412;BME280;32113;42.012;24.870;2023-09-30T05:53:15;99294.66;;;16.97;59.38
46412;BME280;32113;42.012;24.870;2023-09-30T05:55:42;99308.31;;;17.02;59.27
46412;BME280;32113;42.012;24.870;2023-09-30T05:58:09;99307.09;;;17.14;58.77
46412;BME280;32113;42.012;24.870;2023-09-30T06:00:34;99302.75;;;17.14;59.06
46412;BME280;32113;42.012;24.870;2023-09-30T06:03:01;99297.78;;;17.08;58.99
46412;BME280;32113;42.012;24.870;2023-09-30T06:05:27;99299.38;;;17.12;58.78
46412;BME280;32113;42.012;24.870;2023-09-30T06:07:55;99303.34;;;17.23;59.03
46412;BME280;32113;42.012;24.870;2023-09-30T06:10:21;99299.69;;;17.28;58.52
46412;BME280;32113;42.012;24.870;2023-09-30T06:12:47;99302.50;;;17.22;59.09
46412;BME280;32113;42.012;24.870;2023-09-30T06:15:14;99299.38;;;17.38;58.25
46412;BME280;32113;42.012;24.870;2023-09-30T06:17:41;99301.03;;;17.40;57.66
46412;BME280;32113;42.012;24.870;2023-09-30T06:20:07;99301.66;;;17.47;58.09
46412;BME280;32113;42.012;24.870;2023-09-30T06:22:41;99294.56;;;17.52;57.44
46412;BME280;32113;42.012;24.870;2023-09-30T06:25:07;99296.59;;;17.68;57.69
46412;BME280;32113;42.012;24.870;2023-09-30T06:27:32;99296.44;;;17.72;56.80
46412;BME280;32113;42.012;24.870;2023-09-30T06:29:58;99296.94;;;17.82;56.76
46412;BME280;32113;42.012;24.870;2023-09-30T06:32:23;99296.50;;;17.95;56.15
46412;BME280;32113;42.012;24.870;2023-09-30T06:34:49;99305.50;;;18.10;55.79
46412;BME280;32113;42.012;24.870;2023-09-30T06:37:14;99309.50;;;18.19;55.35
46412;BME280;32113;42.012;24.870;2023-09-30T06:39:40;99310.84;;;18.29;55.33
46412;BME280;32113;42.012;24.870;2023-09-30T06:42:06;99312.25;;;18.38;54.84
46412;BME280;32113;42.012;24.870;2023-09-30T06:44:32;99315.22;;;18.51;54.50
46412;BME280;32113;42.012;24.870;2023-09-30T06:46:58;99318.31;;;18.61;53.87
46412;BME280;32113;42.012;24.870;2023-09-30T06:49:23;99317.94;;;18.70;53.82
46412;BME280;32113;42.012;24.870;2023-09-30T06:51:49;99320.53;;;18.70;53.71
46412;BME280;32113;42.012;24.870;2023-09-30T06:54:14;99310.50;;;18.83;53.80
46412;BME280;32113;42.012;24.870;2023-09-30T06:56:40;99324.53;;;19.00;53.01
46412;BME280;32113;42.012;24.870;2023-09-30T06:59:06;99317.97;;;19.13;52.54
46412;BME280;32113;42.012;24.870;2023-09-30T07:01:31;99310.69;;;19.22;52.34
46412;BME280;32113;42.012;24.870;2023-09-30T07:03:57;99309.22;;;19.37;52.13
46412;BME280;32113;42.012;24.870;2023-09-30T07:06:23;99305.28;;;19.47;51.96
46412;BME280;32113;42.012;24.870;2023-09-30T07:08:49;99305.72;;;19.57;51.53
46412;BME280;32113;42.012;24.870;2023-09-30T07:11:15;99308.84;;;19.65;51.45
46412;BME280;32113;42.012;24.870;2023-09-30T07:13:40;99316.19;;;19.76;50.82
46412;BME280;32113;42.012;24.870;2023-09-30T07:16:05;99307.03;;;19.87;50.81
46412;BME280;32113;42.012;24.870;2023-09-30T07:18:31;99317.44;;;20.07;50.33
46412;BME280;32113;42.012;24.870;2023-09-30T07:20:57;99311.44;;;20.25;49.97
46412;BME280;32113;42.012;24.870;2023-09-30T07:23:22;99318.06;;;20.32;49.62
46412;BME280;32113;42.012;24.870;2023-09-30T07:25:47;99314.75;;;20.47;49.23
46412;BME280;32113;42.012;24.870;2023-09-30T07:28:13;99316.47;;;20.66;48.46
46412;BME280;32113;42.012;24.870;2023-09-30T07:30:39;99313.63;;;20.71;48.08
46412;BME280;32113;42.012;24.870;2023-09-30T07:33:05;99321.16;;;20.77;47.64
46412;BME280;32113;42.012;24.870;2023-09-30T07:35:31;99317.84;;;20.93;47.72
46412;BME280;32113;42.012;24.870;2023-09-30T07:37:57;99316.38;;;21.05;47.07
46412;BME280;32113;42.012;24.870;2023-09-30T07:40:23;99307.84;;;21.19;46.52
46412;BME280;32113;42.012;24.870;2023-09-30T07:42:48;99314.53;;;21.42;46.44
46412;BME280;32113;42.012;24.870;2023-09-30T07:45:13;99314.59;;;21.58;45.35
46412;BME280;32113;42.012;24.870;2023-09-30T07:47:43;99315.66;;;21.72;45.31
46412;BME280;32113;42.012;24.870;2023-09-30T07:50:09;99308.94;;;21.84;44.77
46412;BME280;32113;42.012;24.870;2023-09-30T07:52:35;99304.50;;;22.02;43.49
46412;BME280;32113;42.012;24.870;2023-09-30T07:55:01;99309.56;;;22.21;43.92
46412;BME280;32113;42.012;24.870;2023-09-30T07:57:26;99312.34;;;22.34;43.65
46412;BME280;32113;42.012;24.870;2023-09-30T07:59:52;99313.34;;;22.48;42.94
46412;BME280;32113;42.012;24.870;2023-09-30T08:02:17;99305.69;;;22.61;43.23
46412;BME280;32113;42.012;24.870;2023-09-30T08:04:46;99308.94;;;22.80;42.35
46412;BME280;32113;42.012;24.870;2023-09-30T08:07:12;99304.31;;;23.00;41.76
46412;BME280;32113;42.012;24.870;2023-09-30T08:09:38;99303.44;;;23.16;40.91
46412;BME280;32113;42.012;24.870;2023-09-30T08:12:04;99297.47;;;23.28;40.81
46412;BME280;32113;42.012;24.870;2023-09-30T08:14:30;99298.81;;;23.35;41.16
46412;BME280;32113;42.012;24.870;2023-09-30T08:16:55;99301.28;;;23.53;41.67
46412;BME280;32113;42.012;24.870;2023-09-30T08:19:21;99296.69;;;23.71;41.05
46412;BME280;32113;42.012;24.870;2023-09-30T08:21:46;99293.19;;;23.85;39.38
46412;BME280;32113;42.012;24.870;2023-09-30T08:24:12;99287.47;;;24.08;38.35
46412;BME280;32113;42.012;24.870;2023-09-30T08:26:37;99286.63;;;24.22;36.93
46412;BME280;32113;42.012;24.870;2023-09-30T08:29:03;99284.16;;;24.33;37.32
46412;BME280;32113;42.012;24.870;2023-09-30T08:31:30;99284.22;;;24.46;37.59
46412;BME280;32113;42.012;24.870;2023-09-30T08:33:55;99284.69;;;24.66;36.83
46412;BME280;32113;42.012;24.870;2023-09-30T08:36:20;99282.34;;;24.89;36.08
46412;BME280;32113;42.012;24.870;2023-09-30T08:38:46;99280.69;;;25.01;35.18
46412;BME280;32113;42.012;24.870;2023-09-30T08:41:22;99280.50;;;25.17;35.85
46412;BME280;32113;42.012;24.870;2023-09-30T08:43:49;99284.69;;;25.32;34.71
46412;BME280;32113;42.012;24.870;2023-09-30T08:46:15;99272.94;;;25.51;34.30
46412;BME280;32113;42.012;24.870;2023-09-30T08:48:41;99271.47;;;25.60;33.54
46412;BME280;32113;42.012;24.870;2023-09-30T08:51:08;99283.63;;;25.87;32.37
46412;BME280;32113;42.012;24.870;2023-09-30T08:53:34;99277.69;;;25.96;31.77
46412;BME280;32113;42.012;24.870;2023-09-30T08:56:01;99269.66;;;26.11;31.22
46412;BME280;32113;42.012;24.870;2023-09-30T08:58:32;99271.38;;;26.36;30.94
46412;BME280;32113;42.012;24.870;2023-09-30T09:00:57;99282.00;;;26.59;31.43
46412;BME280;32113;42.012;24.870;2023-09-30T09:03:23;99284.25;;;26.88;30.16
46412;BME280;32113;42.012;24.870;2023-09-30T09:05:55;99278.81;;;27.03;29.57
46412;BME280;32113;42.012;24.870;2023-09-30T09:08:26;99272.03;;;27.23;29.00
46412;BME280;32113;42.012;24.870;2023-09-30T09:11:01;99274.19;;;27.52;29.41
46412;BME280;32113;42.012;24.870;2023-09-30T09:13:45;99272.16;;;27.79;28.87
46412;BME280;32113;42.012;24.870;2023-09-30T09:16:11;99273.69;;;28.04;28.81
46412;BME280;32113;42.012;24.870;2023-09-30T09:18:37;99272.13;;;28.25;27.83
46412;BME280;32113;42.012;24.870;2023-09-30T09:21:14;99268.44;;;28.49;27.39
46412;BME280;32113;42.012;24.870;2023-09-30T09:23:44;99272.94;;;28.58;27.25
46412;BME280;32113;42.012;24.870;2023-09-30T09:26:30;99266.41;;;28.74;27.29
46412;BME280;32113;42.012;24.870;2023-09-30T09:29:01;99258.06;;;28.90;26.10
46412;BME280;32113;42.012;24.870;2023-09-30T09:31:32;99257.78;;;29.14;26.30
46412;BME280;32113;42.012;24.870;2023-09-30T09:33:59;99248.53;;;29.30;25.91
46412;BME280;32113;42.012;24.870;2023-09-30T09:36:39;99246.91;;;29.38;25.22
46412;BME280;32113;42.012;24.870;2023-09-30T09:39:06;99237.03;;;29.41;24.37
46412;BME280;32113;42.012;24.870;2023-09-30T09:41:31;99241.44;;;29.52;24.93
46412;BME280;32113;42.012;24.870;2023-09-30T09:43:58;99237.84;;;29.62;24.74
46412;BME280;32113;42.012;24.870;2023-09-30T09:46:24;99237.88;;;29.82;25.01
46412;BME280;32113;42.012;24.870;2023-09-30T09:48:52;99242.78;;;29.97;24.22
46412;BME280;32113;42.012;24.870;2023-09-30T09:51:20;99238.63;;;30.04;23.51
46412;BME280;32113;42.012;24.870;2023-09-30T09:53:48;99235.19;;;30.13;22.79
46412;BME280;32113;42.012;24.870;2023-09-30T09:56:15;99236.59;;;30.18;23.00
46412;BME280;32113;42.012;24.870;2023-09-30T09:58:42;99238.25;;;30.19;23.28
46412;BME280;32113;42.012;24.870;2023-09-30T10:01:09;99227.34;;;30.02;23.19
46412;BME280;32113;42.012;24.870;2023-09-30T10:03:36;99227.06;;;30.05;23.07
46412;BME280;32113;42.012;24.870;2023-09-30T10:06:03;99228.78;;;30.16;23.25
46412;BME280;32113;42.012;24.870;2023-09-30T10:08:36;99218.50;;;30.23;23.27
46412;BME280;32113;42.012;24.870;2023-09-30T10:11:03;99223.63;;;30.34;23.36
46412;BME280;32113;42.012;24.870;2023-09-30T10:13:57;99216.66;;;30.53;22.17
46412;BME280;32113;42.012;24.870;2023-09-30T10:19:20;99211.75;;;30.78;23.75
46412;BME280;32113;42.012;24.870;2023-09-30T10:24:48;99204.16;;;31.03;23.03
46412;BME280;32113;42.012;24.870;2023-09-30T10:35:19;99197.88;;;31.04;22.52
46412;BME280;32113;42.012;24.870;2023-09-30T10:37:45;99197.44;;;31.08;22.63
46412;BME280;32113;42.012;24.870;2023-09-30T10:40:31;99198.97;;;31.11;22.69
46412;BME280;32113;42.012;24.870;2023-09-30T10:42:56;99198.00;;;31.12;22.07
46412;BME280;32113;42.012;24.870;2023-09-30T10:45:43;99190.78;;;31.04;22.43
46412;BME280;32113;42.012;24.870;2023-09-30T10:50:57;99182.38;;;31.09;22.48
46412;BME280;32113;42.012;24.870;2023-09-30T10:53:26;99171.75;;;31.19;22.67
46412;BME280;32113;42.012;24.870;2023-09-30T10:55:57;99171.16;;;31.35;22.53
46412;BME280;32113;42.012;24.870;2023-09-30T10:58:39;99170.78;;;31.48;22.53
46412;BME280;32113;42.012;24.870;2023-09-30T11:01:04;99177.22;;;31.45;22.63
46412;BME280;32113;42.012;24.870;2023-09-30T11:03:30;99169.31;;;31.36;22.70
46412;BME280;32113;42.012;24.870;2023-09-30T11:05:55;99167.66;;;31.35;22.84
46412;BME280;32113;42.012;24.870;2023-09-30T11:08:21;99174.34;;;31.29;21.97
46412;BME280;32113;42.012;24.870;2023-09-30T11:10:50;99169.88;;;31.29;22.32
46412;BME280;32113;42.012;24.870;2023-09-30T11:13:17;99163.06;;;31.27;21.66
46412;BME280;32113;42.012;24.870;2023-09-30T11:15:44;99157.13;;;31.15;21.95
46412;BME280;32113;42.012;24.870;2023-09-30T11:18:17;99151.19;;;31.03;22.19
46412;BME280;32113;42.012;24.870;2023-09-30T11:20:44;99154.47;;;31.15;22.68
46412;BME280;32113;42.012;24.870;2023-09-30T11:23:11;99144.56;;;31.17;22.41
46412;BME280;32113;42.012;24.870;2023-09-30T11:25:38;99148.06;;;31.17;22.24
46412;BME280;32113;42.012;24.870;2023-09-30T11:30:56;99143.19;;;31.13;22.02
46412;BME280;32113;42.012;24.870;2023-09-30T11:33:22;99147.34;;;30.87;22.26
46412;BME280;32113;42.012;24.870;2023-09-30T11:36:05;99137.59;;;30.78;22.79
46412;BME280;32113;42.012;24.870;2023-09-30T11:38:32;99133.56;;;30.84;22.94
46412;BME280;32113;42.012;24.870;2023-09-30T11:41:06;99134.41;;;30.84;23.00
46412;BME280;32113;42.012;24.870;2023-09-30T11:43:35;99121.94;;;30.94;22.73
46412;BME280;32113;42.012;24.870;2023-09-30T11:46:07;99127.78;;;30.98;22.92
46412;BME280;32113;42.012;24.870;2023-09-30T11:48:55;99126.66;;;31.01;23.39
46412;BME280;32113;42.012;24.870;2023-09-30T11:51:22;99125.13;;;30.98;23.67
46412;BME280;32113;42.012;24.870;2023-09-30T11:53:52;99121.94;;;30.94;23.30
46412;BME280;32113;42.012;24.870;2023-09-30T11:56:23;99123.06;;;30.92;22.50
46412;BME280;32113;42.012;24.870;2023-09-30T11:58:53;99125.88;;;30.80;22.94
46412;BME280;32113;42.012;24.870;2023-09-30T12:01:19;99121.72;;;30.78;23.34
46412;BME280;32113;42.012;24.870;2023-09-30T12:03:47;99118.97;;;30.60;22.87
46412;BME280;32113;42.012;24.870;2023-09-30T12:06:13;99113.97;;;30.57;23.29
46412;BME280;32113;42.012;24.870;2023-09-30T12:08:39;99118.56;;;30.54;22.80
46412;BME280;32113;42.012;24.870;2023-09-30T12:11:05;99112.34;;;30.46;23.05
46412;BME280;32113;42.012;24.870;2023-09-30T12:13:31;99106.34;;;30.44;23.71
46412;BME280;32113;42.012;24.870;2023-09-30T12:15:56;99110.25;;;30.39;24.61
46412;BME280;32113;42.012;24.870;2023-09-30T12:18:22;99099.56;;;30.21;24.89
46412;BME280;32113;42.012;24.870;2023-09-30T12:20:52;99096.34;;;29.98;23.28
46412;BME280;32113;42.012;24.870;2023-09-30T12:23:18;99102.22;;;29.92;22.75
46412;BME280;32113;42.012;24.870;2023-09-30T12:25:45;99092.63;;;29.90;23.35
46412;BME280;32113;42.012;24.870;2023-09-30T12:28:11;99090.09;;;29.79;23.45
46412;BME280;32113;42.012;24.870;2023-09-30T12:30:36;99087.88;;;29.64;24.77
46412;BME280;32113;42.012;24.870;2023-09-30T12:33:01;99086.91;;;29.56;25.56
46412;BME280;32113;42.012;24.870;2023-09-30T12:35:27;99077.81;;;29.48;24.05
46412;BME280;32113;42.012;24.870;2023-09-30T12:37:52;99083.38;;;29.45;23.15
46412;BME280;32113;42.012;24.870;2023-09-30T12:40:18;99071.00;;;29.46;23.55
46412;BME280;32113;42.012;24.870;2023-09-30T12:42:44;99071.56;;;29.49;24.54
46412;BME280;32113;42.012;24.870;2023-09-30T12:45:10;99078.53;;;29.60;24.18
46412;BME280;32113;42.012;24.870;2023-09-30T12:47:36;99074.53;;;29.56;23.28
46412;BME280;32113;42.012;24.870;2023-09-30T12:50:02;99072.16;;;29.53;24.42
46412;BME280;32113;42.012;24.870;2023-09-30T12:52:28;99065.22;;;29.52;23.71
46412;BME280;32113;42.012;24.870;2023-09-30T12:54:55;99063.66;;;29.59;23.97
46412;BME280;32113;42.012;24.870;2023-09-30T12:57:21;99066.19;;;29.61;22.79
46412;BME280;32113;42.012;24.870;2023-09-30T12:59:46;99071.72;;;29.58;23.40
46412;BME280;32113;42.012;24.870;2023-09-30T13:02:14;99065.78;;;29.66;23.75
46412;BME280;32113;42.012;24.870;2023-09-30T13:04:39;99055.47;;;29.62;23.42
46412;BME280;32113;42.012;24.870;2023-09-30T13:07:09;99059.94;;;29.52;23.46
46412;BME280;32113;42.012;24.870;2023-09-30T13:09:35;99060.75;;;29.53;23.21